sensor_id;sensor_type;location;lat;lon;timestamp;P1;durP1;ratioP1;P2;durP2;ratioP2
16954;SDS011;8594;52.052;8.354;2022-12-20T00:00:47;8.33;;;5.40;;
16954;SDS011;8594;52.052;8.354;2022-12-20T00:03:14;10.27;;;5.67;;
16954;SDS011;8594;52.052;8.354;2022-12-20T00:05:41;7.37;;;4.83;;
16954;SDS011;8594;52.052;8.354;2022-12-20T00:08:09;10.77;;;5.67;;
16954;SDS011;8594;52.052;8.354;2022-12-20T00:10:40;10.03;;;5.60;;
16954;SDS011;8594;52.052;8.354;2022-12-20T00:13:10;10.30;;;6.23;;
16954;SDS011;8594;52.052;8.354;2022-12-20T00:15:38;13.60;;;7.87;;
16954;SDS011;8594;52.052;8.354;2022-12-20T00:18:05;14.00;;;7.47;;
16954;SDS011;8594;52.052;8.354;2022-12-20T00:20:31;9.67;;;5.83;;
16954;SDS011;8594;52.052;8.354;2022-12-20T00:22:59;12.73;;;7.50;;
16954;SDS011;8594;52.052;8.354;2022-12-20T00:25:26;15.00;;;6.67;;
16954;SDS011;8594;52.052;8.354;2022-12-20T00:27:53;9.17;;;5.23;;
16954;SDS011;8594;52.052;8.354;2022-12-20T00:30:22;8.53;;;4.83;;
16954;SDS011;8594;52.052;8.354;2022-12-20T00:32:49;10.33;;;5.47;;
16954;SDS011;8594;52.052;8.354;2022-12-20T00:35:16;10.30;;;5.77;;
16954;SDS011;8594;52.052;8.354;2022-12-20T00:37:42;12.07;;;5.33;;
16954;SDS011;8594;52.052;8.354;2022-12-20T00:40:09;10.90;;;5.50;;
16954;SDS011;8594;52.052;8.354;2022-12-20T00:42:36;7.60;;;5.17;;
16954;SDS011;8594;52.052;8.354;2022-12-20T00:45:03;8.77;;;5.43;;
16954;SDS011;8594;52.052;8.354;2022-12-20T00:47:33;11.40;;;5.57;;
16954;SDS011;8594;52.052;8.354;2022-12-20T00:49:59;8.87;;;5.00;;
16954;SDS011;8594;52.052;8.354;2022-12-20T00:52:26;11.70;;;6.30;;
16954;SDS011;8594;52.052;8.354;2022-12-20T00:54:53;9.27;;;5.27;;
16954;SDS011;8594;52.052;8.354;2022-12-20T00:57:20;11.77;;;5.70;;
16954;SDS011;8594;52.052;8.354;2022-12-20T00:59:47;10.37;;;5.23;;
16954;SDS011;8594;52.052;8.354;2022-12-20T01:02:14;11.40;;;5.23;;
16954;SDS011;8594;52.052;8.354;2022-12-20T01:04:42;12.00;;;5.30;;
16954;SDS011;8594;52.052;8.354;2022-12-20T01:07:09;8.90;;;5.07;;
16954;SDS011;8594;52.052;8.354;2022-12-20T01:09:36;7.77;;;4.50;;
16954;SDS011;8594;52.052;8.354;2022-12-20T01:12:03;7.97;;;5.10;;
16954;SDS011;8594;52.052;8.354;2022-12-20T01:14:30;9.03;;;5.73;;
16954;SDS011;8594;52.052;8.354;2022-12-20T01:16:57;8.83;;;4.87;;
16954;SDS011;8594;52.052;8.354;2022-12-20T01:19:24;5.87;;;4.40;;
16954;SDS011;8594;52.052;8.354;2022-12-20T01:21:52;11.40;;;5.27;;
16954;SDS011;8594;52.052;8.354;2022-12-20T01:24:19;9.30;;;5.20;;
16954;SDS011;8594;52.052;8.354;2022-12-20T01:26:46;7.17;;;4.97;;
16954;SDS011;8594;52.052;8.354;2022-12-20T01:29:13;10.67;;;4.63;;
16954;SDS011;8594;52.052;8.354;2022-12-20T01:31:41;7.07;;;4.60;;
16954;SDS011;8594;52.052;8.354;2022-12-20T01:34:08;9.30;;;4.67;;
16954;SDS011;8594;52.052;8.354;2022-12-20T01:36:36;7.33;;;4.50;;
16954;SDS011;8594;52.052;8.354;2022-12-20T01:39:06;10.37;;;4.63;;
16954;SDS011;8594;52.052;8.354;2022-12-20T01:41:36;12.27;;;5.13;;
16954;SDS011;8594;52.052;8.354;2022-12-20T01:44:04;9.47;;;5.73;;
16954;SDS011;8594;52.052;8.354;2022-12-20T01:47:10;9.77;;;4.70;;
16954;SDS011;8594;52.052;8.354;2022-12-20T01:49:39;8.47;;;4.87;;
16954;SDS011;8594;52.052;8.354;2022-12-20T01:52:13;6.27;;;4.30;;
16954;SDS011;8594;52.052;8.354;2022-12-20T01:54:45;9.63;;;5.10;;
16954;SDS011;8594;52.052;8.354;2022-12-20T01:57:19;7.13;;;4.67;;
16954;SDS011;8594;52.052;8.354;2022-12-20T01:59:50;8.27;;;4.47;;
16954;SDS011;8594;52.052;8.354;2022-12-20T02:02:20;9.90;;;4.80;;
16954;SDS011;8594;52.052;8.354;2022-12-20T02:04:47;10.23;;;4.67;;
16954;SDS011;8594;52.052;8.354;2022-12-20T02:07:15;8.80;;;4.70;;
16954;SDS011;8594;52.052;8.354;2022-12-20T02:09:50;7.10;;;4.43;;
16954;SDS011;8594;52.052;8.354;2022-12-20T02:12:20;7.33;;;4.07;;
16954;SDS011;8594;52.052;8.354;2022-12-20T02:14:54;9.40;;;4.20;;
16954;SDS011;8594;52.052;8.354;2022-12-20T02:17:41;9.10;;;3.97;;
16954;SDS011;8594;52.052;8.354;2022-12-20T02:23:31;8.37;;;3.70;;
16954;SDS011;8594;52.052;8.354;2022-12-20T02:27:12;8.30;;;4.07;;
16954;SDS011;8594;52.052;8.354;2022-12-20T02:30:11;8.77;;;3.60;;
16954;SDS011;8594;52.052;8.354;2022-12-20T02:32:47;5.70;;;3.70;;
16954;SDS011;8594;52.052;8.354;2022-12-20T02:35:23;8.13;;;4.20;;
16954;SDS011;8594;52.052;8.354;2022-12-20T02:37:54;6.57;;;3.87;;
16954;SDS011;8594;52.052;8.354;2022-12-20T02:40:24;9.77;;;4.17;;
16954;SDS011;8594;52.052;8.354;2022-12-20T02:42:58;10.37;;;4.10;;
16954;SDS011;8594;52.052;8.354;2022-12-20T02:45:30;5.97;;;3.73;;
16954;SDS011;8594;52.052;8.354;2022-12-20T02:48:01;6.30;;;3.53;;
16954;SDS011;8594;52.052;8.354;2022-12-20T02:50:34;10.47;;;3.90;;
16954;SDS011;8594;52.052;8.354;2022-12-20T02:53:05;9.20;;;3.63;;
16954;SDS011;8594;52.052;8.354;2022-12-20T02:55:37;6.43;;;3.47;;
16954;SDS011;8594;52.052;8.354;2022-12-20T02:58:14;4.70;;;3.10;;
16954;SDS011;8594;52.052;8.354;2022-12-20T03:00:54;6.37;;;3.67;;
16954;SDS011;8594;52.052;8.354;2022-12-20T03:03:28;5.93;;;3.50;;
16954;SDS011;8594;52.052;8.354;2022-12-20T03:05:56;8.53;;;4.10;;
16954;SDS011;8594;52.052;8.354;2022-12-20T03:08:23;10.30;;;3.40;;
16954;SDS011;8594;52.052;8.354;2022-12-20T03:10:51;6.17;;;3.50;;
16954;SDS011;8594;52.052;8.354;2022-12-20T03:13:20;7.97;;;3.87;;
16954;SDS011;8594;52.052;8.354;2022-12-20T03:15:47;9.53;;;3.60;;
16954;SDS011;8594;52.052;8.354;2022-12-20T03:18:16;5.57;;;3.40;;
16954;SDS011;8594;52.052;8.354;2022-12-20T03:20:43;4.70;;;3.50;;
16954;SDS011;8594;52.052;8.354;2022-12-20T03:23:10;4.63;;;3.17;;
16954;SDS011;8594;52.052;8.354;2022-12-20T03:25:37;7.63;;;3.67;;
16954;SDS011;8594;52.052;8.354;2022-12-20T03:28:04;5.53;;;3.93;;
16954;SDS011;8594;52.052;8.354;2022-12-20T03:30:31;4.00;;;3.20;;
16954;SDS011;8594;52.052;8.354;2022-12-20T03:32:58;8.80;;;3.93;;
16954;SDS011;8594;52.052;8.354;2022-12-20T03:35:26;9.93;;;5.60;;
16954;SDS011;8594;52.052;8.354;2022-12-20T03:37:53;8.60;;;3.80;;
16954;SDS011;8594;52.052;8.354;2022-12-20T03:40:20;5.10;;;3.10;;
16954;SDS011;8594;52.052;8.354;2022-12-20T03:42:48;6.60;;;3.67;;
16954;SDS011;8594;52.052;8.354;2022-12-20T03:45:15;6.10;;;3.40;;
16954;SDS011;8594;52.052;8.354;2022-12-20T03:47:42;5.13;;;3.40;;
16954;SDS011;8594;52.052;8.354;2022-12-20T03:50:11;7.37;;;3.63;;
16954;SDS011;8594;52.052;8.354;2022-12-20T03:52:39;7.77;;;3.77;;
16954;SDS011;8594;52.052;8.354;2022-12-20T03:55:07;7.03;;;3.50;;
16954;SDS011;8594;52.052;8.354;2022-12-20T03:57:36;6.50;;;3.57;;
16954;SDS011;8594;52.052;8.354;2022-12-20T04:00:03;6.03;;;3.20;;
16954;SDS011;8594;52.052;8.354;2022-12-20T04:02:32;4.57;;;3.20;;
16954;SDS011;8594;52.052;8.354;2022-12-20T04:04:59;6.87;;;3.50;;
16954;SDS011;8594;52.052;8.354;2022-12-20T04:07:26;7.33;;;3.60;;
16954;SDS011;8594;52.052;8.354;2022-12-20T04:09:54;5.33;;;3.50;;
16954;SDS011;8594;52.052;8.354;2022-12-20T04:12:21;7.57;;;3.90;;
16954;SDS011;8594;52.052;8.354;2022-12-20T04:14:48;5.47;;;3.77;;
16954;SDS011;8594;52.052;8.354;2022-12-20T04:17:15;8.67;;;3.90;;
16954;SDS011;8594;52.052;8.354;2022-12-20T04:19:42;5.33;;;3.60;;
16954;SDS011;8594;52.052;8.354;2022-12-20T04:22:09;5.97;;;4.13;;
16954;SDS011;8594;52.052;8.354;2022-12-20T04:24:36;7.00;;;4.07;;
16954;SDS011;8594;52.052;8.354;2022-12-20T04:27:04;6.37;;;3.63;;
16954;SDS011;8594;52.052;8.354;2022-12-20T04:29:31;9.87;;;4.60;;
16954;SDS011;8594;52.052;8.354;2022-12-20T04:31:58;9.23;;;4.07;;
16954;SDS011;8594;52.052;8.354;2022-12-20T04:34:25;10.00;;;4.63;;
16954;SDS011;8594;52.052;8.354;2022-12-20T04:36:52;6.23;;;3.90;;
16954;SDS011;8594;52.052;8.354;2022-12-20T04:39:19;6.40;;;4.17;;
16954;SDS011;8594;52.052;8.354;2022-12-20T04:41:46;9.73;;;4.63;;
16954;SDS011;8594;52.052;8.354;2022-12-20T04:44:14;8.77;;;4.33;;
16954;SDS011;8594;52.052;8.354;2022-12-20T04:46:42;7.80;;;4.40;;
16954;SDS011;8594;52.052;8.354;2022-12-20T04:49:09;11.07;;;4.40;;
16954;SDS011;8594;52.052;8.354;2022-12-20T04:51:36;10.37;;;4.97;;
16954;SDS011;8594;52.052;8.354;2022-12-20T04:54:03;9.73;;;4.50;;
16954;SDS011;8594;52.052;8.354;2022-12-20T04:56:29;6.33;;;4.53;;
16954;SDS011;8594;52.052;8.354;2022-12-20T04:58:56;8.03;;;4.43;;
16954;SDS011;8594;52.052;8.354;2022-12-20T05:01:25;8.77;;;4.60;;
16954;SDS011;8594;52.052;8.354;2022-12-20T05:03:52;12.77;;;4.63;;
16954;SDS011;8594;52.052;8.354;2022-12-20T05:06:19;11.03;;;5.00;;
16954;SDS011;8594;52.052;8.354;2022-12-20T05:08:46;9.33;;;4.60;;
16954;SDS011;8594;52.052;8.354;2022-12-20T05:11:13;9.70;;;5.27;;
16954;SDS011;8594;52.052;8.354;2022-12-20T05:13:41;10.30;;;5.40;;
16954;SDS011;8594;52.052;8.354;2022-12-20T05:16:08;10.20;;;5.07;;
16954;SDS011;8594;52.052;8.354;2022-12-20T05:18:36;9.10;;;5.30;;
16954;SDS011;8594;52.052;8.354;2022-12-20T05:21:03;10.40;;;5.27;;
16954;SDS011;8594;52.052;8.354;2022-12-20T05:23:48;8.53;;;4.70;;
16954;SDS011;8594;52.052;8.354;2022-12-20T05:26:33;8.93;;;5.00;;
16954;SDS011;8594;52.052;8.354;2022-12-20T05:29:02;8.77;;;5.37;;
16954;SDS011;8594;52.052;8.354;2022-12-20T05:31:30;8.03;;;5.07;;
16954;SDS011;8594;52.052;8.354;2022-12-20T05:33:59;7.53;;;4.70;;
16954;SDS011;8594;52.052;8.354;2022-12-20T05:36:26;8.00;;;4.60;;
16954;SDS011;8594;52.052;8.354;2022-12-20T05:38:53;9.87;;;5.67;;
16954;SDS011;8594;52.052;8.354;2022-12-20T05:41:20;10.07;;;5.07;;
16954;SDS011;8594;52.052;8.354;2022-12-20T05:43:47;11.17;;;5.80;;
16954;SDS011;8594;52.052;8.354;2022-12-20T05:46:14;10.67;;;5.10;;
16954;SDS011;8594;52.052;8.354;2022-12-20T05:48:41;11.80;;;5.30;;
16954;SDS011;8594;52.052;8.354;2022-12-20T05:51:09;11.23;;;5.63;;
16954;SDS011;8594;52.052;8.354;2022-12-20T05:53:36;10.77;;;5.57;;
16954;SDS011;8594;52.052;8.354;2022-12-20T05:56:03;8.27;;;5.30;;
16954;SDS011;8594;52.052;8.354;2022-12-20T05:58:30;8.83;;;5.90;;
16954;SDS011;8594;52.052;8.354;2022-12-20T06:00:59;9.63;;;5.47;;
16954;SDS011;8594;52.052;8.354;2022-12-20T06:03:26;9.90;;;5.10;;
16954;SDS011;8594;52.052;8.354;2022-12-20T06:05:53;8.87;;;4.97;;
16954;SDS011;8594;52.052;8.354;2022-12-20T06:08:22;10.30;;;5.77;;
16954;SDS011;8594;52.052;8.354;2022-12-20T06:10:49;10.50;;;6.23;;
16954;SDS011;8594;52.052;8.354;2022-12-20T06:13:16;11.50;;;5.73;;
16954;SDS011;8594;52.052;8.354;2022-12-20T06:15:44;10.03;;;5.50;;
16954;SDS011;8594;52.052;8.354;2022-12-20T06:18:11;12.27;;;5.40;;
16954;SDS011;8594;52.052;8.354;2022-12-20T06:20:38;11.10;;;5.80;;
16954;SDS011;8594;52.052;8.354;2022-12-20T06:23:06;9.83;;;5.70;;
16954;SDS011;8594;52.052;8.354;2022-12-20T06:25:35;10.73;;;6.30;;
16954;SDS011;8594;52.052;8.354;2022-12-20T06:28:03;9.60;;;6.10;;
16954;SDS011;8594;52.052;8.354;2022-12-20T06:30:31;14.50;;;6.10;;
16954;SDS011;8594;52.052;8.354;2022-12-20T06:32:59;12.03;;;6.47;;
16954;SDS011;8594;52.052;8.354;2022-12-20T06:35:26;15.10;;;6.70;;
16954;SDS011;8594;52.052;8.354;2022-12-20T06:37:53;12.43;;;6.93;;
16954;SDS011;8594;52.052;8.354;2022-12-20T06:40:21;18.23;;;7.87;;
16954;SDS011;8594;52.052;8.354;2022-12-20T06:42:50;17.53;;;6.73;;
16954;SDS011;8594;52.052;8.354;2022-12-20T06:45:17;12.90;;;6.93;;
16954;SDS011;8594;52.052;8.354;2022-12-20T06:47:44;12.33;;;6.60;;
16954;SDS011;8594;52.052;8.354;2022-12-20T06:50:11;13.03;;;6.93;;
16954;SDS011;8594;52.052;8.354;2022-12-20T06:52:38;11.87;;;6.43;;
16954;SDS011;8594;52.052;8.354;2022-12-20T06:55:05;12.67;;;6.33;;
16954;SDS011;8594;52.052;8.354;2022-12-20T06:57:32;9.87;;;5.80;;
16954;SDS011;8594;52.052;8.354;2022-12-20T07:00:01;11.13;;;5.63;;
16954;SDS011;8594;52.052;8.354;2022-12-20T07:02:29;14.40;;;6.03;;
16954;SDS011;8594;52.052;8.354;2022-12-20T07:04:56;9.10;;;5.63;;
16954;SDS011;8594;52.052;8.354;2022-12-20T07:07:23;11.10;;;6.50;;
16954;SDS011;8594;52.052;8.354;2022-12-20T07:09:49;11.60;;;6.30;;
16954;SDS011;8594;52.052;8.354;2022-12-20T07:12:16;14.27;;;6.53;;
16954;SDS011;8594;52.052;8.354;2022-12-20T07:14:43;16.27;;;7.77;;
16954;SDS011;8594;52.052;8.354;2022-12-20T07:17:12;13.57;;;7.33;;
16954;SDS011;8594;52.052;8.354;2022-12-20T07:19:39;15.63;;;8.77;;
16954;SDS011;8594;52.052;8.354;2022-12-20T07:22:07;13.17;;;7.07;;
16954;SDS011;8594;52.052;8.354;2022-12-20T07:24:34;16.07;;;7.10;;
16954;SDS011;8594;52.052;8.354;2022-12-20T07:27:00;12.87;;;7.33;;
16954;SDS011;8594;52.052;8.354;2022-12-20T07:29:28;18.50;;;10.83;;
16954;SDS011;8594;52.052;8.354;2022-12-20T07:31:55;14.70;;;7.80;;
16954;SDS011;8594;52.052;8.354;2022-12-20T07:34:23;15.93;;;7.77;;
16954;SDS011;8594;52.052;8.354;2022-12-20T07:36:50;16.30;;;7.83;;
16954;SDS011;8594;52.052;8.354;2022-12-20T07:39:17;14.20;;;8.07;;
16954;SDS011;8594;52.052;8.354;2022-12-20T07:41:44;14.23;;;7.53;;
16954;SDS011;8594;52.052;8.354;2022-12-20T07:44:11;20.37;;;11.10;;
16954;SDS011;8594;52.052;8.354;2022-12-20T07:46:38;17.77;;;7.97;;
16954;SDS011;8594;52.052;8.354;2022-12-20T07:49:05;17.50;;;10.87;;
16954;SDS011;8594;52.052;8.354;2022-12-20T07:51:34;13.47;;;7.20;;
16954;SDS011;8594;52.052;8.354;2022-12-20T07:54:05;20.80;;;10.50;;
16954;SDS011;8594;52.052;8.354;2022-12-20T07:56:39;14.43;;;7.73;;
16954;SDS011;8594;52.052;8.354;2022-12-20T07:59:11;14.83;;;8.03;;
16954;SDS011;8594;52.052;8.354;2022-12-20T08:01:44;16.73;;;10.40;;
16954;SDS011;8594;52.052;8.354;2022-12-20T08:04:13;21.07;;;10.57;;
16954;SDS011;8594;52.052;8.354;2022-12-20T08:06:46;15.63;;;8.80;;
16954;SDS011;8594;52.052;8.354;2022-12-20T08:09:15;17.53;;;10.10;;
16954;SDS011;8594;52.052;8.354;2022-12-20T08:11:43;14.77;;;9.17;;
16954;SDS011;8594;52.052;8.354;2022-12-20T08:14:13;18.83;;;8.50;;
16954;SDS011;8594;52.052;8.354;2022-12-20T08:16:41;14.57;;;9.40;;
16954;SDS011;8594;52.052;8.354;2022-12-20T08:19:08;17.00;;;9.50;;
16954;SDS011;8594;52.052;8.354;2022-12-20T08:21:35;19.77;;;9.70;;
16954;SDS011;8594;52.052;8.354;2022-12-20T08:24:04;17.63;;;9.93;;
16954;SDS011;8594;52.052;8.354;2022-12-20T08:26:35;20.67;;;10.73;;
16954;SDS011;8594;52.052;8.354;2022-12-20T08:29:03;18.47;;;10.70;;
16954;SDS011;8594;52.052;8.354;2022-12-20T08:31:30;22.57;;;10.87;;
16954;SDS011;8594;52.052;8.354;2022-12-20T08:33:57;17.93;;;9.77;;
16954;SDS011;8594;52.052;8.354;2022-12-20T08:36:24;18.57;;;10.73;;
16954;SDS011;8594;52.052;8.354;2022-12-20T08:38:51;21.13;;;11.00;;
16954;SDS011;8594;52.052;8.354;2022-12-20T08:41:20;19.80;;;10.50;;
16954;SDS011;8594;52.052;8.354;2022-12-20T08:43:47;18.70;;;11.33;;
16954;SDS011;8594;52.052;8.354;2022-12-20T08:46:14;19.60;;;11.00;;
16954;SDS011;8594;52.052;8.354;2022-12-20T08:48:41;22.03;;;11.47;;
16954;SDS011;8594;52.052;8.354;2022-12-20T08:51:08;17.57;;;10.67;;
16954;SDS011;8594;52.052;8.354;2022-12-20T08:53:37;20.17;;;10.27;;
16954;SDS011;8594;52.052;8.354;2022-12-20T08:56:05;20.33;;;11.00;;
16954;SDS011;8594;52.052;8.354;2022-12-20T08:58:35;19.63;;;10.80;;
16954;SDS011;8594;52.052;8.354;2022-12-20T09:01:04;29.53;;;11.20;;
16954;SDS011;8594;52.052;8.354;2022-12-20T09:03:32;17.37;;;10.17;;
16954;SDS011;8594;52.052;8.354;2022-12-20T09:06:03;18.47;;;10.73;;
16954;SDS011;8594;52.052;8.354;2022-12-20T09:11:02;18.70;;;9.87;;
16954;SDS011;8594;52.052;8.354;2022-12-20T09:13:30;19.40;;;10.73;;
16954;SDS011;8594;52.052;8.354;2022-12-20T09:16:00;21.90;;;11.83;;
16954;SDS011;8594;52.052;8.354;2022-12-20T09:18:27;21.27;;;10.73;;
16954;SDS011;8594;52.052;8.354;2022-12-20T09:20:54;21.73;;;10.43;;
16954;SDS011;8594;52.052;8.354;2022-12-20T09:23:24;17.33;;;10.50;;
16954;SDS011;8594;52.052;8.354;2022-12-20T09:25:51;19.47;;;10.73;;
16954;SDS011;8594;52.052;8.354;2022-12-20T09:28:18;21.67;;;9.63;;
16954;SDS011;8594;52.052;8.354;2022-12-20T09:30:45;21.50;;;9.37;;
16954;SDS011;8594;52.052;8.354;2022-12-20T09:33:13;17.57;;;9.67;;
16954;SDS011;8594;52.052;8.354;2022-12-20T09:35:43;14.50;;;9.47;;
16954;SDS011;8594;52.052;8.354;2022-12-20T09:38:11;15.00;;;9.00;;
16954;SDS011;8594;52.052;8.354;2022-12-20T09:40:38;16.20;;;9.67;;
16954;SDS011;8594;52.052;8.354;2022-12-20T09:43:12;18.10;;;9.10;;
16954;SDS011;8594;52.052;8.354;2022-12-20T09:45:41;18.27;;;8.33;;
16954;SDS011;8594;52.052;8.354;2022-12-20T09:48:15;15.60;;;8.53;;
16954;SDS011;8594;52.052;8.354;2022-12-20T09:50:48;15.93;;;8.83;;
16954;SDS011;8594;52.052;8.354;2022-12-20T09:53:34;14.13;;;8.30;;
16954;SDS011;8594;52.052;8.354;2022-12-20T09:56:14;19.80;;;8.40;;
16954;SDS011;8594;52.052;8.354;2022-12-20T09:58:58;18.70;;;7.90;;
16954;SDS011;8594;52.052;8.354;2022-12-20T10:01:29;15.90;;;8.07;;
16954;SDS011;8594;52.052;8.354;2022-12-20T10:04:01;19.67;;;8.40;;
16954;SDS011;8594;52.052;8.354;2022-12-20T10:06:35;15.63;;;8.27;;
16954;SDS011;8594;52.052;8.354;2022-12-20T10:09:18;16.83;;;8.37;;
16954;SDS011;8594;52.052;8.354;2022-12-20T10:12:15;18.43;;;8.50;;
16954;SDS011;8594;52.052;8.354;2022-12-20T10:15:11;13.20;;;8.40;;
16954;SDS011;8594;52.052;8.354;2022-12-20T10:17:54;13.93;;;7.53;;
16954;SDS011;8594;52.052;8.354;2022-12-20T10:20:49;15.90;;;7.73;;
16954;SDS011;8594;52.052;8.354;2022-12-20T10:23:26;17.97;;;7.47;;
16954;SDS011;8594;52.052;8.354;2022-12-20T10:26:04;13.87;;;6.83;;
16954;SDS011;8594;52.052;8.354;2022-12-20T10:28:35;17.13;;;7.40;;
16954;SDS011;8594;52.052;8.354;2022-12-20T10:31:04;14.80;;;7.83;;
16954;SDS011;8594;52.052;8.354;2022-12-20T10:33:36;15.07;;;7.67;;
16954;SDS011;8594;52.052;8.354;2022-12-20T10:36:17;12.77;;;7.43;;
16954;SDS011;8594;52.052;8.354;2022-12-20T10:38:51;11.07;;;7.30;;
16954;SDS011;8594;52.052;8.354;2022-12-20T10:41:22;12.60;;;7.30;;
16954;SDS011;8594;52.052;8.354;2022-12-20T10:43:53;12.20;;;6.73;;
16954;SDS011;8594;52.052;8.354;2022-12-20T10:46:36;12.20;;;6.67;;
16954;SDS011;8594;52.052;8.354;2022-12-20T10:49:19;16.13;;;7.10;;
16954;SDS011;8594;52.052;8.354;2022-12-20T10:51:58;11.23;;;6.27;;
16954;SDS011;8594;52.052;8.354;2022-12-20T10:54:28;16.20;;;8.17;;
16954;SDS011;8594;52.052;8.354;2022-12-20T10:56:59;13.27;;;6.57;;
16954;SDS011;8594;52.052;8.354;2022-12-20T10:59:38;10.40;;;6.43;;
16954;SDS011;8594;52.052;8.354;2022-12-20T11:02:20;12.03;;;6.30;;
16954;SDS011;8594;52.052;8.354;2022-12-20T11:04:58;12.63;;;6.40;;
16954;SDS011;8594;52.052;8.354;2022-12-20T11:07:29;14.00;;;7.60;;
16954;SDS011;8594;52.052;8.354;2022-12-20T11:10:00;10.77;;;6.73;;
16954;SDS011;8594;52.052;8.354;2022-12-20T11:12:44;11.17;;;6.53;;
16954;SDS011;8594;52.052;8.354;2022-12-20T11:15:19;14.23;;;6.17;;
16954;SDS011;8594;52.052;8.354;2022-12-20T11:17:49;12.97;;;6.63;;
16954;SDS011;8594;52.052;8.354;2022-12-20T11:20:24;11.53;;;6.53;;
16954;SDS011;8594;52.052;8.354;2022-12-20T11:23:05;10.63;;;6.00;;
16954;SDS011;8594;52.052;8.354;2022-12-20T11:25:47;12.20;;;5.80;;
16954;SDS011;8594;52.052;8.354;2022-12-20T11:28:41;11.20;;;5.73;;
16954;SDS011;8594;52.052;8.354;2022-12-20T11:31:31;7.93;;;4.93;;
16954;SDS011;8594;52.052;8.354;2022-12-20T11:34:22;9.23;;;5.17;;
16954;SDS011;8594;52.052;8.354;2022-12-20T11:40:04;9.13;;;4.73;;
16954;SDS011;8594;52.052;8.354;2022-12-20T11:42:49;14.83;;;5.07;;
16954;SDS011;8594;52.052;8.354;2022-12-20T11:45:34;9.93;;;4.70;;
16954;SDS011;8594;52.052;8.354;2022-12-20T11:48:23;4.80;;;3.80;;
16954;SDS011;8594;52.052;8.354;2022-12-20T11:51:21;6.60;;;3.57;;
16954;SDS011;8594;52.052;8.354;2022-12-20T11:53:52;8.43;;;3.63;;
16954;SDS011;8594;52.052;8.354;2022-12-20T11:56:27;6.10;;;3.50;;
16954;SDS011;8594;52.052;8.354;2022-12-20T11:59:01;4.73;;;2.97;;
16954;SDS011;8594;52.052;8.354;2022-12-20T12:01:37;5.77;;;3.00;;
16954;SDS011;8594;52.052;8.354;2022-12-20T12:04:12;6.53;;;2.93;;
16954;SDS011;8594;52.052;8.354;2022-12-20T12:06:46;8.47;;;2.80;;
16954;SDS011;8594;52.052;8.354;2022-12-20T12:09:21;5.80;;;3.00;;
16954;SDS011;8594;52.052;8.354;2022-12-20T12:11:57;5.60;;;3.20;;
16954;SDS011;8594;52.052;8.354;2022-12-20T12:14:32;9.10;;;3.13;;
16954;SDS011;8594;52.052;8.354;2022-12-20T12:17:11;5.47;;;2.97;;
16954;SDS011;8594;52.052;8.354;2022-12-20T12:19:49;8.07;;;3.30;;
16954;SDS011;8594;52.052;8.354;2022-12-20T12:22:26;3.87;;;2.83;;
16954;SDS011;8594;52.052;8.354;2022-12-20T12:25:01;7.73;;;3.03;;
16954;SDS011;8594;52.052;8.354;2022-12-20T12:27:37;3.97;;;2.70;;
16954;SDS011;8594;52.052;8.354;2022-12-20T12:30:05;5.03;;;2.83;;
16954;SDS011;8594;52.052;8.354;2022-12-20T12:32:38;8.27;;;2.83;;
16954;SDS011;8594;52.052;8.354;2022-12-20T12:35:17;5.10;;;2.90;;
16954;SDS011;8594;52.052;8.354;2022-12-20T12:38:14;5.73;;;3.37;;
16954;SDS011;8594;52.052;8.354;2022-12-20T12:44:35;6.40;;;3.03;;
16954;SDS011;8594;52.052;8.354;2022-12-20T12:47:15;7.00;;;3.30;;
16954;SDS011;8594;52.052;8.354;2022-12-20T12:49:48;5.77;;;3.13;;
16954;SDS011;8594;52.052;8.354;2022-12-20T12:55:34;4.80;;;3.00;;
16954;SDS011;8594;52.052;8.354;2022-12-20T12:58:14;5.83;;;2.87;;
16954;SDS011;8594;52.052;8.354;2022-12-20T13:01:04;6.53;;;2.90;;
16954;SDS011;8594;52.052;8.354;2022-12-20T13:03:44;5.17;;;3.50;;
16954;SDS011;8594;52.052;8.354;2022-12-20T13:09:50;9.13;;;3.90;;
16954;SDS011;8594;52.052;8.354;2022-12-20T13:18:26;9.07;;;5.43;;
16954;SDS011;8594;52.052;8.354;2022-12-20T13:27:20;11.83;;;5.60;;
16954;SDS011;8594;52.052;8.354;2022-12-20T13:29:56;5.47;;;3.67;;
16954;SDS011;8594;52.052;8.354;2022-12-20T13:33:01;28.57;;;16.77;;
16954;SDS011;8594;52.052;8.354;2022-12-20T13:35:54;7.00;;;3.60;;
16954;SDS011;8594;52.052;8.354;2022-12-20T13:44:32;4.53;;;3.30;;
16954;SDS011;8594;52.052;8.354;2022-12-20T13:47:19;38.97;;;18.80;;
16954;SDS011;8594;52.052;8.354;2022-12-20T13:50:16;9.93;;;4.43;;
16954;SDS011;8594;52.052;8.354;2022-12-20T13:52:53;7.47;;;4.00;;
16954;SDS011;8594;52.052;8.354;2022-12-20T13:55:23;11.07;;;4.03;;
16954;SDS011;8594;52.052;8.354;2022-12-20T13:58:02;15.40;;;8.70;;
16954;SDS011;8594;52.052;8.354;2022-12-20T14:00:32;9.80;;;4.80;;
16954;SDS011;8594;52.052;8.354;2022-12-20T14:02:59;8.00;;;4.27;;
16954;SDS011;8594;52.052;8.354;2022-12-20T14:05:30;13.23;;;4.63;;
16954;SDS011;8594;52.052;8.354;2022-12-20T14:08:03;9.37;;;4.37;;
16954;SDS011;8594;52.052;8.354;2022-12-20T14:10:34;16.27;;;8.10;;
16954;SDS011;8594;52.052;8.354;2022-12-20T14:13:01;9.67;;;4.97;;
16954;SDS011;8594;52.052;8.354;2022-12-20T14:15:43;11.83;;;6.30;;
16954;SDS011;8594;52.052;8.354;2022-12-20T14:18:15;9.80;;;4.30;;
16954;SDS011;8594;52.052;8.354;2022-12-20T14:20:45;10.57;;;5.20;;
16954;SDS011;8594;52.052;8.354;2022-12-20T14:23:18;22.83;;;11.57;;
16954;SDS011;8594;52.052;8.354;2022-12-20T14:25:49;7.70;;;3.53;;
16954;SDS011;8594;52.052;8.354;2022-12-20T14:28:29;6.60;;;3.47;;
16954;SDS011;8594;52.052;8.354;2022-12-20T14:31:01;7.80;;;4.37;;
16954;SDS011;8594;52.052;8.354;2022-12-20T14:33:33;9.60;;;4.00;;
16954;SDS011;8594;52.052;8.354;2022-12-20T14:36:07;8.10;;;2.90;;
16954;SDS011;8594;52.052;8.354;2022-12-20T14:38:45;5.97;;;2.80;;
16954;SDS011;8594;52.052;8.354;2022-12-20T14:41:27;8.43;;;4.40;;
16954;SDS011;8594;52.052;8.354;2022-12-20T14:43:57;13.83;;;7.57;;
16954;SDS011;8594;52.052;8.354;2022-12-20T14:46:28;7.27;;;3.47;;
16954;SDS011;8594;52.052;8.354;2022-12-20T14:49:15;7.00;;;4.00;;
16954;SDS011;8594;52.052;8.354;2022-12-20T14:51:47;6.50;;;3.67;;
16954;SDS011;8594;52.052;8.354;2022-12-20T14:54:17;7.10;;;3.40;;
16954;SDS011;8594;52.052;8.354;2022-12-20T14:56:47;6.10;;;3.43;;
16954;SDS011;8594;52.052;8.354;2022-12-20T14:59:20;7.80;;;3.23;;
16954;SDS011;8594;52.052;8.354;2022-12-20T15:01:51;5.60;;;2.80;;
16954;SDS011;8594;52.052;8.354;2022-12-20T15:04:20;5.80;;;3.10;;
16954;SDS011;8594;52.052;8.354;2022-12-20T15:06:50;5.57;;;3.00;;
16954;SDS011;8594;52.052;8.354;2022-12-20T15:09:19;7.03;;;3.40;;
16954;SDS011;8594;52.052;8.354;2022-12-20T15:11:47;9.30;;;3.50;;
16954;SDS011;8594;52.052;8.354;2022-12-20T15:14:25;5.83;;;2.60;;
16954;SDS011;8594;52.052;8.354;2022-12-20T15:17:01;5.23;;;2.47;;
16954;SDS011;8594;52.052;8.354;2022-12-20T15:19:29;10.00;;;2.97;;
16954;SDS011;8594;52.052;8.354;2022-12-20T15:21:57;8.37;;;3.10;;
16954;SDS011;8594;52.052;8.354;2022-12-20T15:24:25;7.77;;;3.83;;
16954;SDS011;8594;52.052;8.354;2022-12-20T15:26:54;5.43;;;2.80;;
16954;SDS011;8594;52.052;8.354;2022-12-20T15:29:21;6.70;;;3.20;;
16954;SDS011;8594;52.052;8.354;2022-12-20T15:31:50;4.40;;;3.10;;
16954;SDS011;8594;52.052;8.354;2022-12-20T15:34:26;8.63;;;3.30;;
16954;SDS011;8594;52.052;8.354;2022-12-20T15:36:57;4.73;;;3.10;;
16954;SDS011;8594;52.052;8.354;2022-12-20T15:39:27;7.63;;;3.73;;
16954;SDS011;8594;52.052;8.354;2022-12-20T15:41:55;7.50;;;3.50;;
16954;SDS011;8594;52.052;8.354;2022-12-20T15:44:26;7.60;;;3.60;;
16954;SDS011;8594;52.052;8.354;2022-12-20T15:46:56;7.70;;;3.43;;
16954;SDS011;8594;52.052;8.354;2022-12-20T15:49:24;4.83;;;3.30;;
16954;SDS011;8594;52.052;8.354;2022-12-20T15:51:55;8.23;;;3.87;;
16954;SDS011;8594;52.052;8.354;2022-12-20T15:54:23;6.90;;;3.73;;
16954;SDS011;8594;52.052;8.354;2022-12-20T15:56:55;5.67;;;3.60;;